Saint Augustine, FL (32080)

3:14 PM EST on December 06, 2016 (GMT -0500)
Julieta Ct | | Change Station

Elev 43 ft 29.80 °N, 81.31 °W | Updated 13 seconds ago

Mostly Cloudy
Mostly Cloudy
79.5 °F
Feels Like 82 °F
N
1.8
Wind Variable Wind from SSW
Gusts 2.5 mph

Today
High -- | Low -- °F
--% Chance of Precip.
Yesterday
High -- | Low -- °F
Precip. -- in
Pressure 29.79 in
Visibility 10.0 miles
Clouds Few 2600 ft
Mostly Cloudy 3500 ft
Heat Index 82 °F
Dew Point 66 °F
Humidity 64%
Rainfall 0.65 in
Snow Depth Not available.
7:07 AM 5:25 PM
Waxing Crescent, 44% visible
METAR KSGJ 061958Z 25008KT 10SM FEW026 BKN035 27/21 A2979 RMK AO2 SLP087 T02670206
Pressure 29.79 in
Visibility 10.0 miles
Clouds Few 2600 ft
Mostly Cloudy 3500 ft
Heat Index 82 °F
Dew Point 66 °F
Humidity 64%
Rainfall 0.65 in
Snow Depth Not available.
7:07 AM 5:25 PM
Waxing Crescent, 44% visible
METAR KSGJ 061958Z 25008KT 10SM FEW026 BKN035 27/21 A2979 RMK AO2 SLP087 T02670206

10-Day Weather Forecast

Almanac

Astronomy

Dec. 06, 2016 Rise Set
Actual Time
Civil Twilight
Nautical Twilight
Astronomical Twilight
Moon
Length of Visible Light
Length of Day
Tomorrow will be .
, % of the Moon is Illuminated

Today's Extremes

State Highs State Lows

Community

WunderPhotos

Upload Photos

1,956,022 photos uploaded!

WunderBlog® & News

Nearby

Air Quality

  Air Quality AQ Index Pollutant
Not available.

Snow Depth

Station Depth Elevation

Earthquake Activity

City Distance Mag. Time & Date
Minimum magnitude displayed is 2.5.

Coastal Water Temperatures

Place Temperature

Stations

Nearby Weather Stations

Station Location Temp. Windchill Dew Point Humidity Wind Precip. Elev Updated Type
                   

Watches & Warnings

There are currently no watches in effect.